createdAt,value
2022-09-05T00:02:55.462Z,0.80
2022-09-05T00:06:06.794Z,0.80
2022-09-05T00:09:06.369Z,0.80
2022-09-05T00:12:00.721Z,0.80
2022-09-05T00:15:17.432Z,0.80
2022-09-05T00:22:14.423Z,0.90
2022-09-05T00:24:36.441Z,0.90
2022-09-05T00:25:30.705Z,0.80
2022-09-05T00:28:29.852Z,0.90
2022-09-05T00:31:55.254Z,1.00
2022-09-05T00:35:01.084Z,0.90
2022-09-05T00:37:49.776Z,0.70
2022-09-05T00:40:56.560Z,0.90
2022-09-05T00:43:48.681Z,1.00
2022-09-05T00:46:41.415Z,1.20
2022-09-05T00:49:39.648Z,1.30
2022-09-05T00:52:33.208Z,1.10
2022-09-05T00:55:36.989Z,1.30
2022-09-05T00:58:40.844Z,1.00
2022-09-05T01:01:44.684Z,1.10
2022-09-05T01:04:53.921Z,1.20
2022-09-05T01:08:14.224Z,1.10
2022-09-05T01:11:37.593Z,1.40
2022-09-05T01:14:45.343Z,1.40
2022-09-05T01:18:05.369Z,1.40
2022-09-05T01:21:06.116Z,1.30
2022-09-05T01:24:10.542Z,1.30
2022-09-05T01:27:25.540Z,1.20
2022-09-05T01:30:37.488Z,1.50
2022-09-05T01:33:46.100Z,1.50
2022-09-05T01:36:59.792Z,1.50
2022-09-05T01:40:16.125Z,1.30
2022-09-05T01:43:30.512Z,1.80
2022-09-05T01:47:02.439Z,1.40
2022-09-05T01:50:00.863Z,1.50
2022-09-05T01:53:22.357Z,1.60
2022-09-05T01:56:30.102Z,1.40
2022-09-05T01:59:28.072Z,1.50
2022-09-05T02:02:21.709Z,1.40
2022-09-05T02:05:49.219Z,1.50
2022-09-05T02:08:46.262Z,1.40
2022-09-05T02:11:38.200Z,1.30
2022-09-05T02:14:35.985Z,1.40
2022-09-05T02:17:50.980Z,1.70
2022-09-05T02:20:54.780Z,1.60
2022-09-05T02:23:49.400Z,2.10
2022-09-05T02:27:04.693Z,1.60
2022-09-05T02:32:55.343Z,1.80
2022-09-05T02:35:47.780Z,1.50
2022-09-05T02:42:51.201Z,1.60
2022-09-05T02:45:21.088Z,1.90
2022-09-05T02:45:26.674Z,1.80
2022-09-05T02:48:32.799Z,1.80
2022-09-05T02:57:25.428Z,1.90
2022-09-05T02:57:34.406Z,1.80
2022-09-05T02:59:06.121Z,1.90
2022-09-05T03:02:28.346Z,2.10
2022-09-05T03:05:26.920Z,1.80
2022-09-05T03:08:37.636Z,1.80
2022-09-05T03:11:45.603Z,1.90
2022-09-05T03:14:56.025Z,1.80
2022-09-05T03:18:20.738Z,1.60
2022-09-05T03:21:45.026Z,1.80
2022-09-05T03:25:11.831Z,1.80
2022-09-05T03:28:35.094Z,2.40
2022-09-05T03:32:05.552Z,1.90
2022-09-05T03:35:08.729Z,2.00
2022-09-05T03:38:17.678Z,2.00
2022-09-05T03:41:09.583Z,2.00
2022-09-05T03:44:39.531Z,2.00
2022-09-05T03:47:44.514Z,1.90
2022-09-05T03:57:10.323Z,2.00
2022-09-05T03:57:17.339Z,2.40
2022-09-05T03:57:33.750Z,2.30
2022-09-05T04:00:23.218Z,2.60
2022-09-05T04:08:14.024Z,2.10
2022-09-05T04:08:20.512Z,2.50
2022-09-05T04:10:09.594Z,2.60
2022-09-05T04:13:04.295Z,2.80
2022-09-05T04:16:17.973Z,2.70
2022-09-05T04:19:24.815Z,2.60
2022-09-05T04:22:35.583Z,2.40
2022-09-05T04:25:49.426Z,2.60
2022-09-05T04:29:03.425Z,2.80
2022-09-05T04:31:54.904Z,3.70
2022-09-05T04:35:14.120Z,3.20
2022-09-05T04:38:33.967Z,3.00
2022-09-05T04:41:36.559Z,3.10
2022-09-05T04:44:32.987Z,3.20
2022-09-05T04:47:46.996Z,3.40
2022-09-05T04:50:52.698Z,3.20
2022-09-05T04:54:24.306Z,3.40
2022-09-05T04:57:43.332Z,4.10
2022-09-05T05:06:05.461Z,4.40
2022-09-05T05:06:05.693Z,3.90
2022-09-05T05:07:07.899Z,4.20
2022-09-05T05:11:07.463Z,4.30
2022-09-05T05:18:00.928Z,4.70
2022-09-05T05:18:14.227Z,4.40
2022-09-05T05:19:57.876Z,4.20
2022-09-05T05:23:07.526Z,3.90
2022-09-05T05:25:59.617Z,4.40
2022-09-05T05:29:03.278Z,4.40
2022-09-05T05:32:02.958Z,4.10
2022-09-05T05:34:57.383Z,3.90
2022-09-05T05:37:56.378Z,4.00
2022-09-05T05:40:52.606Z,4.20
2022-09-05T05:43:46.051Z,4.20
2022-09-05T05:46:38.170Z,3.70
2022-09-05T05:49:45.230Z,3.90
2022-09-05T05:52:37.138Z,3.60
2022-09-05T05:55:51.901Z,3.70
2022-09-05T05:59:16.395Z,3.80
2022-09-05T06:02:23.843Z,3.50
2022-09-05T06:05:31.642Z,3.70
2022-09-05T06:14:37.504Z,3.90
2022-09-05T06:14:56.250Z,5.70
2022-09-05T06:15:40.785Z,5.10
2022-09-05T06:19:05.212Z,5.00
2022-09-05T06:22:21.348Z,4.40
2022-09-05T06:25:26.004Z,3.80
2022-09-05T06:31:42.887Z,3.20
2022-09-05T06:34:58.153Z,3.20
2022-09-05T06:37:45.626Z,3.60
2022-09-05T06:40:40.485Z,3.30
2022-09-05T06:43:45.756Z,2.90
2022-09-05T06:47:05.793Z,2.70
2022-09-05T06:49:47.855Z,2.50
2022-09-05T06:53:20.007Z,2.20
2022-09-05T06:56:26.079Z,2.40
2022-09-05T06:59:39.256Z,2.40
2022-09-05T07:03:00.024Z,2.20
2022-09-05T07:05:55.939Z,2.30
2022-09-05T07:08:48.513Z,2.70
2022-09-05T07:11:52.362Z,2.60
2022-09-05T07:15:09.317Z,2.50
2022-09-05T07:18:25.251Z,2.20
2022-09-05T07:21:31.112Z,2.30
2022-09-05T07:24:45.589Z,2.20
2022-09-05T07:28:26.456Z,2.40
2022-09-05T07:31:06.290Z,2.30
2022-09-05T07:34:21.366Z,2.00
2022-09-05T07:37:14.789Z,2.20
2022-09-05T07:43:39.558Z,1.20
2022-09-05T07:46:33.362Z,2.70
2022-09-05T07:49:24.000Z,2.40
2022-09-05T07:56:47.762Z,1.20
2022-09-05T07:57:01.478Z,1.10
2022-09-05T07:58:49.905Z,0.50
2022-09-05T08:01:41.176Z,0.50
2022-09-05T08:04:33.099Z,0.70
2022-09-05T08:07:49.848Z,0.80
2022-09-05T08:11:22.335Z,0.60
2022-09-05T08:14:40.580Z,0.90
2022-09-05T08:17:09.224Z,0.60
2022-09-05T08:20:30.336Z,0.80
2022-09-05T08:23:18.888Z,1.10
2022-09-05T08:26:27.757Z,0.60
2022-09-05T08:29:32.740Z,0.40
2022-09-05T08:35:17.372Z,0.70
2022-09-05T08:38:04.652Z,0.50
2022-09-05T08:41:07.688Z,0.40
2022-09-05T08:46:39.567Z,0.70
2022-09-05T08:47:55.093Z,0.70
2022-09-05T08:50:43.348Z,0.50
2022-09-05T08:53:56.412Z,0.60
2022-09-05T08:56:54.579Z,0.70
2022-09-05T09:00:19.336Z,0.60
2022-09-05T09:03:05.029Z,0.70
2022-09-05T09:06:16.139Z,0.70
2022-09-05T09:09:05.962Z,0.60
2022-09-05T09:11:55.620Z,0.60
2022-09-05T09:14:47.507Z,0.60
2022-09-05T09:17:47.288Z,0.50
2022-09-05T09:20:59.772Z,0.40
2022-09-05T09:23:56.570Z,0.40
2022-09-05T09:26:52.207Z,0.40
2022-09-05T09:29:42.603Z,0.40
2022-09-05T09:32:29.559Z,0.50
2022-09-05T09:35:35.924Z,0.50
2022-09-05T09:38:40.551Z,0.50
2022-09-05T09:44:54.411Z,0.40
2022-09-05T09:47:52.288Z,0.50
2022-09-05T09:51:27.007Z,0.60
2022-09-05T09:54:43.359Z,0.50
2022-09-05T09:57:48.108Z,0.40
2022-09-05T10:00:53.899Z,0.30
2022-09-05T10:10:33.100Z,0.40
2022-09-05T10:10:49.905Z,0.40
2022-09-05T10:14:49.168Z,0.80
2022-09-05T10:17:55.219Z,0.40
2022-09-05T10:21:16.044Z,0.50
2022-09-05T10:24:27.787Z,0.50
2022-09-05T10:28:07.851Z,0.50
2022-09-05T10:32:37.718Z,0.50
2022-09-05T10:35:13.250Z,0.40
2022-09-05T10:37:46.439Z,0.40
2022-09-05T10:40:39.695Z,0.30
2022-09-05T10:44:06.830Z,0.40
2022-09-05T10:47:17.401Z,0.40
2022-09-05T10:50:18.468Z,0.30
2022-09-05T10:53:48.855Z,0.40
2022-09-05T10:56:48.043Z,0.40
2022-09-05T11:02:24.542Z,0.40
2022-09-05T11:03:22.330Z,0.40
2022-09-05T11:06:15.763Z,0.30
2022-09-05T11:09:23.939Z,0.30
2022-09-05T11:12:28.802Z,0.40
2022-09-05T11:15:17.710Z,0.50
2022-09-05T11:18:14.895Z,0.30
2022-09-05T11:21:21.826Z,0.40
2022-09-05T11:24:37.174Z,0.40
2022-09-05T11:27:37.782Z,0.40
2022-09-05T11:30:30.310Z,0.40
2022-09-05T11:39:19.301Z,0.40
2022-09-05T11:39:53.270Z,0.40
2022-09-05T11:40:31.455Z,0.30
2022-09-05T11:43:39.426Z,0.40
2022-09-05T11:47:28.324Z,0.50
2022-09-05T11:50:34.203Z,0.30
2022-09-05T11:53:42.060Z,0.60
2022-09-05T11:56:46.554Z,0.30
2022-09-05T11:59:49.834Z,0.40
2022-09-05T12:03:57.660Z,0.50
2022-09-05T12:06:47.798Z,0.50
2022-09-05T12:09:58.315Z,0.50
2022-09-05T12:13:16.342Z,0.30
2022-09-05T12:16:19.759Z,0.40
2022-09-05T12:19:25.215Z,0.40
2022-09-05T12:22:43.675Z,0.40
2022-09-05T12:27:41.162Z,0.40
2022-09-05T12:29:33.927Z,0.40
2022-09-05T12:35:57.048Z,0.50
2022-09-05T12:36:11.730Z,0.40
2022-09-05T12:40:57.365Z,0.40
2022-09-05T12:42:21.680Z,0.40
2022-09-05T12:48:54.979Z,0.30
2022-09-05T12:51:57.954Z,0.50
2022-09-05T12:54:57.102Z,0.40
2022-09-05T13:02:55.277Z,0.40
2022-09-05T13:03:12.213Z,0.40
2022-09-05T13:04:20.257Z,0.40
2022-09-05T13:07:12.177Z,0.40
2022-09-05T13:14:33.488Z,0.30
2022-09-05T13:14:58.079Z,0.60
2022-09-05T13:16:32.245Z,0.40
2022-09-05T13:19:51.915Z,0.50
2022-09-05T13:22:48.591Z,0.40
2022-09-05T13:25:37.321Z,0.40
2022-09-05T13:28:26.742Z,0.40
2022-09-05T13:37:44.798Z,0.40
2022-09-05T13:38:11.401Z,0.40
2022-09-05T13:38:14.174Z,0.50
2022-09-05T13:40:48.838Z,0.40
2022-09-05T13:43:39.466Z,0.40
2022-09-05T13:46:42.638Z,0.40
2022-09-05T13:49:45.015Z,0.40
2022-09-05T13:52:31.430Z,0.50
2022-09-05T13:55:34.890Z,0.40
2022-09-05T13:58:56.451Z,0.50
2022-09-05T14:02:25.708Z,0.40
2022-09-05T14:05:20.873Z,0.60
2022-09-05T14:08:40.366Z,0.40
2022-09-05T14:11:32.862Z,0.40
2022-09-05T14:18:20.304Z,0.40
2022-09-05T14:21:15.919Z,0.30
2022-09-05T14:24:14.501Z,0.40
2022-09-05T14:27:00.782Z,0.40
2022-09-05T14:29:41.594Z,0.40
2022-09-05T14:37:38.731Z,0.90
2022-09-05T14:37:41.199Z,0.40
2022-09-05T14:38:14.532Z,4.20
2022-09-05T14:41:08.666Z,0.90
2022-09-05T14:44:06.642Z,0.50
2022-09-05T14:46:45.726Z,0.30
2022-09-05T14:49:23.115Z,0.30
2022-09-05T14:51:53.047Z,0.40
2022-09-05T15:02:41.567Z,0.50
2022-09-05T15:02:42.232Z,0.30
2022-09-05T15:03:10.662Z,0.40
2022-09-05T15:05:46.097Z,0.30
2022-09-05T15:09:19.821Z,0.50
2022-09-05T15:12:23.216Z,0.50
2022-09-05T15:14:07.691Z,0.40
2022-09-05T15:16:40.549Z,0.40
2022-09-05T15:19:14.055Z,0.50
2022-09-05T15:21:42.481Z,0.40
2022-09-05T15:24:14.337Z,0.60
2022-09-05T15:26:53.113Z,0.40
2022-09-05T15:29:27.097Z,0.50
2022-09-05T15:32:18.450Z,0.30
2022-09-05T15:34:46.783Z,0.50
2022-09-05T15:37:29.677Z,0.50
2022-09-05T15:40:23.191Z,0.40
2022-09-05T15:42:56.861Z,0.40
2022-09-05T15:45:33.114Z,0.50
2022-09-05T15:48:16.331Z,0.40
2022-09-05T15:50:51.549Z,0.50
2022-09-05T15:53:37.199Z,0.60
2022-09-05T15:56:11.242Z,0.70
2022-09-05T15:58:54.007Z,0.70
2022-09-05T16:01:59.096Z,0.60
2022-09-05T16:09:04.676Z,0.50
2022-09-05T16:10:38.519Z,0.40
2022-09-05T16:10:50.978Z,0.30
2022-09-05T16:13:17.523Z,0.30
2022-09-05T16:21:47.336Z,0.50
2022-09-05T16:23:28.411Z,0.50
2022-09-05T16:23:44.911Z,0.60
2022-09-05T16:24:41.585Z,0.70
2022-09-05T16:27:51.496Z,0.70
2022-09-05T16:30:31.296Z,0.30
2022-09-05T16:33:13.879Z,0.60
2022-09-05T16:36:03.921Z,0.40
2022-09-05T16:38:48.768Z,0.50
2022-09-05T16:41:40.603Z,0.50
2022-09-05T16:44:17.945Z,1.30
2022-09-05T16:47:05.925Z,0.60
2022-09-05T16:49:44.304Z,0.50
2022-09-05T16:52:17.239Z,0.50
2022-09-05T16:55:00.456Z,0.60
2022-09-05T16:57:35.948Z,0.50
2022-09-05T17:00:05.700Z,0.50
2022-09-05T17:02:43.719Z,0.80
2022-09-05T17:05:46.207Z,0.50
2022-09-05T17:08:26.556Z,0.50
2022-09-05T17:11:12.311Z,0.50
2022-09-05T17:13:56.900Z,0.50
2022-09-05T17:16:30.997Z,0.70
2022-09-05T17:19:01.588Z,0.50
2022-09-05T17:22:31.633Z,0.50
2022-09-05T17:29:16.047Z,0.80
2022-09-05T17:29:43.153Z,0.80
2022-09-05T17:33:00.306Z,0.80
2022-09-05T17:36:03.365Z,0.80
2022-09-05T17:39:07.260Z,1.10
2022-09-05T17:42:05.220Z,1.10
2022-09-05T17:45:10.804Z,1.10
2022-09-05T17:47:52.154Z,2.80
2022-09-05T17:50:45.327Z,1.90
2022-09-05T17:53:26.345Z,1.60
2022-09-05T17:55:56.487Z,1.60
2022-09-05T17:58:49.486Z,1.70
2022-09-05T18:01:26.386Z,2.00
2022-09-05T18:04:17.358Z,2.10
2022-09-05T18:06:59.320Z,2.00
2022-09-05T18:09:37.167Z,1.60
2022-09-05T18:12:07.288Z,1.50
2022-09-05T18:17:39.468Z,1.30
2022-09-05T18:20:24.293Z,1.30
2022-09-05T18:23:34.298Z,1.20
2022-09-05T18:26:04.820Z,1.10
2022-09-05T18:28:51.890Z,1.20
2022-09-05T18:31:41.254Z,1.20
2022-09-05T18:34:14.028Z,1.20
2022-09-05T18:36:44.902Z,1.20
2022-09-05T18:39:29.555Z,1.10
2022-09-05T18:42:34.434Z,1.20
2022-09-05T18:45:16.976Z,1.30
2022-09-05T18:47:58.827Z,1.20
2022-09-05T18:50:32.328Z,1.20
2022-09-05T18:53:13.004Z,1.40
2022-09-05T18:56:10.482Z,1.40
2022-09-05T18:58:54.053Z,1.40
2022-09-05T19:01:36.168Z,1.30
2022-09-05T19:04:11.332Z,1.60
2022-09-05T19:07:08.168Z,1.10
2022-09-05T19:09:38.260Z,1.30
2022-09-05T19:12:31.932Z,1.20
2022-09-05T19:15:08.705Z,1.50
2022-09-05T19:17:47.899Z,1.50
2022-09-05T19:20:31.934Z,1.40
2022-09-05T19:23:13.803Z,1.80
2022-09-05T19:25:46.867Z,2.20
2022-09-05T19:34:57.855Z,1.90
2022-09-05T19:36:57.052Z,2.00
2022-09-05T19:37:05.768Z,1.80
2022-09-05T19:37:29.625Z,1.60
2022-09-05T19:47:25.355Z,2.00
2022-09-05T19:47:35.659Z,1.80
2022-09-05T19:47:41.502Z,2.20
2022-09-05T19:48:34.940Z,2.00
2022-09-05T19:51:16.985Z,1.70
2022-09-05T19:53:53.993Z,1.70
2022-09-05T19:56:44.703Z,2.00
2022-09-05T19:59:20.213Z,2.10
2022-09-05T20:01:49.363Z,1.90
2022-09-05T20:04:19.612Z,2.10
2022-09-05T20:06:49.937Z,1.70
2022-09-05T20:09:22.363Z,1.90
2022-09-05T20:11:58.886Z,2.00
2022-09-05T20:14:32.943Z,2.20
2022-09-05T20:17:21.299Z,1.80
2022-09-05T20:19:50.842Z,1.80
2022-09-05T20:22:49.509Z,1.50
2022-09-05T20:25:19.702Z,1.70
2022-09-05T20:28:09.929Z,2.10
2022-09-05T20:30:47.907Z,1.80
2022-09-05T20:33:25.767Z,1.80
2022-09-05T20:43:09.199Z,1.70
2022-09-05T20:43:36.699Z,1.90
2022-09-05T20:44:48.639Z,1.60
2022-09-05T20:53:08.397Z,1.60
2022-09-05T20:54:17.614Z,1.80
2022-09-05T20:54:24.833Z,1.70
2022-09-05T20:56:23.947Z,1.70
2022-09-05T20:58:55.942Z,1.80
2022-09-05T21:01:25.901Z,1.80
2022-09-05T21:04:02.774Z,2.00
2022-09-05T21:06:39.873Z,1.90
2022-09-05T21:09:29.477Z,1.90
2022-09-05T21:12:00.301Z,1.90
2022-09-05T21:14:29.589Z,1.90
2022-09-05T21:17:12.003Z,2.00
2022-09-05T21:19:54.044Z,2.30
2022-09-05T21:22:30.685Z,2.20
2022-09-05T21:25:24.146Z,2.10
2022-09-05T21:28:00.673Z,2.10
2022-09-05T21:30:35.038Z,1.90
2022-09-05T21:33:18.569Z,2.00
2022-09-05T21:38:32.737Z,2.00
2022-09-05T21:41:03.073Z,2.50
2022-09-05T21:47:33.659Z,2.50
2022-09-05T21:47:42.729Z,2.20
2022-09-05T21:49:10.133Z,2.20
2022-09-05T21:51:39.107Z,2.20
2022-09-05T21:59:17.398Z,2.10
2022-09-05T21:59:28.486Z,2.10
2022-09-05T22:00:05.522Z,2.20
2022-09-05T22:02:49.251Z,2.10
2022-09-05T22:05:20.357Z,1.90
2022-09-05T22:07:48.964Z,1.80
2022-09-05T22:10:17.440Z,1.80
2022-09-05T22:12:45.870Z,1.70
2022-09-05T22:15:28.446Z,1.60
2022-09-05T22:18:17.275Z,1.60
2022-09-05T22:20:51.283Z,1.50
2022-09-05T22:23:44.572Z,1.60
2022-09-05T22:26:16.261Z,1.60
2022-09-05T22:28:51.583Z,1.60
2022-09-05T22:31:20.583Z,1.60
2022-09-05T22:33:51.095Z,1.50
2022-09-05T22:36:20.179Z,1.50
2022-09-05T22:38:49.392Z,1.50
2022-09-05T22:41:18.088Z,1.50
2022-09-05T22:43:58.673Z,1.50
2022-09-05T22:46:28.976Z,1.40
2022-09-05T22:48:57.553Z,1.50
2022-09-05T22:51:26.933Z,1.40
2022-09-05T22:53:55.780Z,1.50
2022-09-05T22:56:36.065Z,1.40
2022-09-05T22:59:05.432Z,1.50
2022-09-05T23:01:34.279Z,1.30
2022-09-05T23:04:03.098Z,1.50
2022-09-05T23:06:31.920Z,1.30
2022-09-05T23:09:00.210Z,1.30
2022-09-05T23:11:28.895Z,1.30
2022-09-05T23:13:58.657Z,1.50
2022-09-05T23:16:26.964Z,1.30
2022-09-05T23:18:55.595Z,1.40
2022-09-05T23:21:23.933Z,1.40
2022-09-05T23:23:52.332Z,1.50
2022-09-05T23:26:20.713Z,1.30
2022-09-05T23:28:49.121Z,1.50
2022-09-05T23:31:18.099Z,1.10
2022-09-05T23:33:46.531Z,1.30
2022-09-05T23:36:15.161Z,1.30
2022-09-05T23:38:44.180Z,1.30
2022-09-05T23:41:14.828Z,1.30
2022-09-05T23:43:43.196Z,1.20
2022-09-05T23:46:11.894Z,1.40
2022-09-05T23:48:40.323Z,1.20
2022-09-05T23:51:11.274Z,1.40
2022-09-05T23:53:39.907Z,1.50
2022-09-05T23:56:09.976Z,1.30
2022-09-05T23:58:39.087Z,1.40
